sensor_id;sensor_type;location;lat;lon;timestamp;P1;durP1;ratioP1;P2;durP2;ratioP2
3465;SDS011;1747;48.884;9.160;2023-08-12T00:01:34;7.65;;;5.15;;
3465;SDS011;1747;48.884;9.160;2023-08-12T00:04:00;6.85;;;5.13;;
3465;SDS011;1747;48.884;9.160;2023-08-12T00:06:27;5.63;;;4.65;;
3465;SDS011;1747;48.884;9.160;2023-08-12T00:08:55;5.95;;;4.63;;
3465;SDS011;1747;48.884;9.160;2023-08-12T00:11:22;5.82;;;5.22;;
3465;SDS011;1747;48.884;9.160;2023-08-12T00:13:49;7.35;;;5.28;;
3465;SDS011;1747;48.884;9.160;2023-08-12T00:16:16;8.20;;;5.10;;
3465;SDS011;1747;48.884;9.160;2023-08-12T00:18:43;7.40;;;4.93;;
3465;SDS011;1747;48.884;9.160;2023-08-12T00:21:10;5.40;;;4.45;;
3465;SDS011;1747;48.884;9.160;2023-08-12T00:23:37;6.05;;;4.50;;
3465;SDS011;1747;48.884;9.160;2023-08-12T00:26:09;8.18;;;6.40;;
3465;SDS011;1747;48.884;9.160;2023-08-12T00:28:36;7.95;;;5.88;;
3465;SDS011;1747;48.884;9.160;2023-08-12T00:31:03;7.78;;;6.43;;
3465;SDS011;1747;48.884;9.160;2023-08-12T00:33:30;7.40;;;6.43;;
3465;SDS011;1747;48.884;9.160;2023-08-12T00:35:57;9.10;;;6.78;;
3465;SDS011;1747;48.884;9.160;2023-08-12T00:38:24;6.88;;;6.00;;
3465;SDS011;1747;48.884;9.160;2023-08-12T00:40:51;9.15;;;7.47;;
3465;SDS011;1747;48.884;9.160;2023-08-12T00:43:19;8.77;;;6.05;;
3465;SDS011;1747;48.884;9.160;2023-08-12T00:45:46;7.75;;;6.25;;
3465;SDS011;1747;48.884;9.160;2023-08-12T00:48:13;7.82;;;6.55;;
3465;SDS011;1747;48.884;9.160;2023-08-12T00:50:42;11.20;;;7.20;;
3465;SDS011;1747;48.884;9.160;2023-08-12T00:53:09;8.85;;;6.95;;
3465;SDS011;1747;48.884;9.160;2023-08-12T00:55:38;9.05;;;6.95;;
3465;SDS011;1747;48.884;9.160;2023-08-12T00:58:05;6.93;;;6.25;;
3465;SDS011;1747;48.884;9.160;2023-08-12T01:00:33;8.05;;;6.40;;
3465;SDS011;1747;48.884;9.160;2023-08-12T01:03:00;9.75;;;6.45;;
3465;SDS011;1747;48.884;9.160;2023-08-12T01:05:29;7.50;;;6.07;;
3465;SDS011;1747;48.884;9.160;2023-08-12T01:07:56;8.45;;;6.25;;
3465;SDS011;1747;48.884;9.160;2023-08-12T01:10:23;7.97;;;6.32;;
3465;SDS011;1747;48.884;9.160;2023-08-12T01:12:55;7.18;;;5.70;;
3465;SDS011;1747;48.884;9.160;2023-08-12T01:15:31;10.48;;;5.70;;
3465;SDS011;1747;48.884;9.160;2023-08-12T01:18:00;9.07;;;5.82;;
3465;SDS011;1747;48.884;9.160;2023-08-12T01:20:28;11.52;;;6.15;;
3465;SDS011;1747;48.884;9.160;2023-08-12T01:22:56;7.22;;;5.57;;
3465;SDS011;1747;48.884;9.160;2023-08-12T01:25:26;9.18;;;5.95;;
3465;SDS011;1747;48.884;9.160;2023-08-12T01:27:53;7.72;;;5.72;;
3465;SDS011;1747;48.884;9.160;2023-08-12T01:30:21;6.53;;;5.85;;
3465;SDS011;1747;48.884;9.160;2023-08-12T01:32:49;9.45;;;6.50;;
3465;SDS011;1747;48.884;9.160;2023-08-12T01:35:20;7.35;;;5.50;;
3465;SDS011;1747;48.884;9.160;2023-08-12T01:37:51;7.68;;;6.43;;
3465;SDS011;1747;48.884;9.160;2023-08-12T01:40:19;9.82;;;6.63;;
3465;SDS011;1747;48.884;9.160;2023-08-12T01:42:48;8.30;;;5.95;;
3465;SDS011;1747;48.884;9.160;2023-08-12T01:45:17;9.75;;;6.50;;
3465;SDS011;1747;48.884;9.160;2023-08-12T01:47:44;8.18;;;6.32;;
3465;SDS011;1747;48.884;9.160;2023-08-12T01:50:11;9.60;;;6.20;;
3465;SDS011;1747;48.884;9.160;2023-08-12T01:52:38;8.40;;;6.28;;
3465;SDS011;1747;48.884;9.160;2023-08-12T01:55:05;9.57;;;5.82;;
3465;SDS011;1747;48.884;9.160;2023-08-12T01:57:32;9.73;;;7.03;;
3465;SDS011;1747;48.884;9.160;2023-08-12T02:00:00;9.82;;;6.22;;
3465;SDS011;1747;48.884;9.160;2023-08-12T02:02:28;9.32;;;6.45;;
3465;SDS011;1747;48.884;9.160;2023-08-12T02:04:55;9.02;;;6.07;;
3465;SDS011;1747;48.884;9.160;2023-08-12T02:07:25;8.02;;;6.38;;
3465;SDS011;1747;48.884;9.160;2023-08-12T02:09:52;9.15;;;6.53;;
3465;SDS011;1747;48.884;9.160;2023-08-12T02:12:18;9.23;;;6.25;;
3465;SDS011;1747;48.884;9.160;2023-08-12T02:14:45;10.18;;;6.07;;
3465;SDS011;1747;48.884;9.160;2023-08-12T02:17:14;9.32;;;6.20;;
3465;SDS011;1747;48.884;9.160;2023-08-12T02:19:40;8.57;;;6.07;;
3465;SDS011;1747;48.884;9.160;2023-08-12T02:22:07;11.40;;;6.53;;
3465;SDS011;1747;48.884;9.160;2023-08-12T02:24:35;7.80;;;6.20;;
3465;SDS011;1747;48.884;9.160;2023-08-12T02:27:02;12.10;;;6.43;;
3465;SDS011;1747;48.884;9.160;2023-08-12T02:29:29;7.88;;;6.32;;
3465;SDS011;1747;48.884;9.160;2023-08-12T02:31:56;10.65;;;7.15;;
3465;SDS011;1747;48.884;9.160;2023-08-12T02:34:24;11.00;;;6.30;;
3465;SDS011;1747;48.884;9.160;2023-08-12T02:36:51;8.63;;;6.28;;
3465;SDS011;1747;48.884;9.160;2023-08-12T02:39:18;9.13;;;6.00;;
3465;SDS011;1747;48.884;9.160;2023-08-12T02:41:45;7.50;;;5.82;;
3465;SDS011;1747;48.884;9.160;2023-08-12T02:44:11;8.02;;;5.95;;
3465;SDS011;1747;48.884;9.160;2023-08-12T02:46:38;10.25;;;6.28;;
3465;SDS011;1747;48.884;9.160;2023-08-12T02:49:05;8.32;;;5.78;;
3465;SDS011;1747;48.884;9.160;2023-08-12T02:51:33;9.32;;;6.25;;
3465;SDS011;1747;48.884;9.160;2023-08-12T02:54:00;12.18;;;6.57;;
3465;SDS011;1747;48.884;9.160;2023-08-12T02:56:27;10.00;;;6.35;;
3465;SDS011;1747;48.884;9.160;2023-08-12T02:58:54;8.20;;;5.95;;
3465;SDS011;1747;48.884;9.160;2023-08-12T03:01:21;12.35;;;6.60;;
3465;SDS011;1747;48.884;9.160;2023-08-12T03:03:48;11.77;;;7.10;;
3465;SDS011;1747;48.884;9.160;2023-08-12T03:06:15;9.50;;;6.07;;
3465;SDS011;1747;48.884;9.160;2023-08-12T03:08:44;7.53;;;5.88;;
3465;SDS011;1747;48.884;9.160;2023-08-12T03:11:11;10.30;;;5.90;;
3465;SDS011;1747;48.884;9.160;2023-08-12T03:13:37;9.32;;;6.25;;
3465;SDS011;1747;48.884;9.160;2023-08-12T03:16:04;9.05;;;7.15;;
3465;SDS011;1747;48.884;9.160;2023-08-12T03:18:36;9.57;;;6.80;;
3465;SDS011;1747;48.884;9.160;2023-08-12T03:21:05;12.35;;;7.25;;
3465;SDS011;1747;48.884;9.160;2023-08-12T03:23:32;10.10;;;7.15;;
3465;SDS011;1747;48.884;9.160;2023-08-12T03:26:00;10.43;;;7.05;;
3465;SDS011;1747;48.884;9.160;2023-08-12T03:28:27;9.65;;;7.45;;
3465;SDS011;1747;48.884;9.160;2023-08-12T03:30:54;8.80;;;6.20;;
3465;SDS011;1747;48.884;9.160;2023-08-12T03:33:21;8.57;;;6.28;;
3465;SDS011;1747;48.884;9.160;2023-08-12T03:35:47;6.93;;;5.72;;
3465;SDS011;1747;48.884;9.160;2023-08-12T03:38:15;8.88;;;6.00;;
3465;SDS011;1747;48.884;9.160;2023-08-12T03:40:42;8.88;;;6.78;;
3465;SDS011;1747;48.884;9.160;2023-08-12T03:43:10;11.20;;;7.10;;
3465;SDS011;1747;48.884;9.160;2023-08-12T03:45:40;7.65;;;6.53;;
3465;SDS011;1747;48.884;9.160;2023-08-12T03:48:08;10.00;;;6.22;;
3465;SDS011;1747;48.884;9.160;2023-08-12T03:50:35;9.13;;;6.30;;
3465;SDS011;1747;48.884;9.160;2023-08-12T03:53:03;9.43;;;6.18;;
3465;SDS011;1747;48.884;9.160;2023-08-12T03:55:31;8.40;;;6.05;;
3465;SDS011;1747;48.884;9.160;2023-08-12T03:57:58;10.43;;;6.88;;
3465;SDS011;1747;48.884;9.160;2023-08-12T04:00:26;7.47;;;5.97;;
3465;SDS011;1747;48.884;9.160;2023-08-12T04:02:53;10.82;;;6.47;;
3465;SDS011;1747;48.884;9.160;2023-08-12T04:05:20;9.55;;;6.63;;
3465;SDS011;1747;48.884;9.160;2023-08-12T04:07:47;9.23;;;6.60;;
3465;SDS011;1747;48.884;9.160;2023-08-12T04:10:14;8.32;;;6.50;;
3465;SDS011;1747;48.884;9.160;2023-08-12T04:12:41;10.80;;;6.32;;
3465;SDS011;1747;48.884;9.160;2023-08-12T04:15:08;12.43;;;6.82;;
3465;SDS011;1747;48.884;9.160;2023-08-12T04:17:37;8.65;;;6.10;;
3465;SDS011;1747;48.884;9.160;2023-08-12T04:20:06;10.45;;;6.43;;
3465;SDS011;1747;48.884;9.160;2023-08-12T04:22:33;10.65;;;6.10;;
3465;SDS011;1747;48.884;9.160;2023-08-12T04:25:00;7.07;;;5.75;;
3465;SDS011;1747;48.884;9.160;2023-08-12T04:27:28;12.15;;;7.05;;
3465;SDS011;1747;48.884;9.160;2023-08-12T04:29:55;8.52;;;6.78;;
3465;SDS011;1747;48.884;9.160;2023-08-12T04:32:21;7.57;;;5.68;;
3465;SDS011;1747;48.884;9.160;2023-08-12T04:34:50;7.70;;;5.35;;
3465;SDS011;1747;48.884;9.160;2023-08-12T04:37:16;8.45;;;6.53;;
3465;SDS011;1747;48.884;9.160;2023-08-12T04:39:43;9.73;;;6.47;;
3465;SDS011;1747;48.884;9.160;2023-08-12T04:42:10;9.18;;;6.07;;
3465;SDS011;1747;48.884;9.160;2023-08-12T04:47:59;9.85;;;6.40;;
3465;SDS011;1747;48.884;9.160;2023-08-12T04:50:30;7.38;;;6.55;;
3465;SDS011;1747;48.884;9.160;2023-08-12T04:52:59;9.02;;;7.55;;
3465;SDS011;1747;48.884;9.160;2023-08-12T04:55:26;9.20;;;6.65;;
3465;SDS011;1747;48.884;9.160;2023-08-12T04:57:54;10.45;;;6.47;;
3465;SDS011;1747;48.884;9.160;2023-08-12T05:00:21;8.88;;;6.80;;
3465;SDS011;1747;48.884;9.160;2023-08-12T05:02:48;9.35;;;6.60;;
3465;SDS011;1747;48.884;9.160;2023-08-12T05:05:15;10.57;;;6.97;;
3465;SDS011;1747;48.884;9.160;2023-08-12T05:07:43;8.70;;;6.25;;
3465;SDS011;1747;48.884;9.160;2023-08-12T05:10:13;9.40;;;7.05;;
3465;SDS011;1747;48.884;9.160;2023-08-12T05:12:41;9.80;;;6.20;;
3465;SDS011;1747;48.884;9.160;2023-08-12T05:15:08;8.40;;;6.30;;
3465;SDS011;1747;48.884;9.160;2023-08-12T05:17:35;12.27;;;6.25;;
3465;SDS011;1747;48.884;9.160;2023-08-12T05:20:02;9.52;;;5.90;;
3465;SDS011;1747;48.884;9.160;2023-08-12T05:22:30;9.70;;;6.20;;
3465;SDS011;1747;48.884;9.160;2023-08-12T05:24:58;9.43;;;6.38;;
3465;SDS011;1747;48.884;9.160;2023-08-12T05:27:25;9.18;;;6.20;;
3465;SDS011;1747;48.884;9.160;2023-08-12T05:29:52;10.35;;;5.85;;
3465;SDS011;1747;48.884;9.160;2023-08-12T05:32:19;11.27;;;6.60;;
3465;SDS011;1747;48.884;9.160;2023-08-12T05:34:46;7.68;;;6.38;;
3465;SDS011;1747;48.884;9.160;2023-08-12T05:37:16;8.55;;;6.10;;
3465;SDS011;1747;48.884;9.160;2023-08-12T05:39:43;8.20;;;6.68;;
3465;SDS011;1747;48.884;9.160;2023-08-12T05:42:11;10.15;;;6.40;;
3465;SDS011;1747;48.884;9.160;2023-08-12T05:44:40;7.85;;;6.55;;
3465;SDS011;1747;48.884;9.160;2023-08-12T05:47:07;8.93;;;6.63;;
3465;SDS011;1747;48.884;9.160;2023-08-12T05:49:34;10.20;;;7.15;;
3465;SDS011;1747;48.884;9.160;2023-08-12T05:52:00;8.90;;;6.43;;
3465;SDS011;1747;48.884;9.160;2023-08-12T05:54:27;9.98;;;6.95;;
3465;SDS011;1747;48.884;9.160;2023-08-12T05:56:54;8.10;;;6.38;;
3465;SDS011;1747;48.884;9.160;2023-08-12T05:59:23;13.82;;;6.20;;
3465;SDS011;1747;48.884;9.160;2023-08-12T06:01:50;11.07;;;6.88;;
3465;SDS011;1747;48.884;9.160;2023-08-12T06:04:17;8.15;;;6.68;;
3465;SDS011;1747;48.884;9.160;2023-08-12T06:06:44;9.35;;;6.55;;
3465;SDS011;1747;48.884;9.160;2023-08-12T06:09:11;11.20;;;6.70;;
3465;SDS011;1747;48.884;9.160;2023-08-12T06:11:38;8.55;;;6.40;;
3465;SDS011;1747;48.884;9.160;2023-08-12T06:14:05;10.10;;;6.45;;
3465;SDS011;1747;48.884;9.160;2023-08-12T06:16:34;8.75;;;6.78;;
3465;SDS011;1747;48.884;9.160;2023-08-12T06:19:02;6.88;;;6.18;;
3465;SDS011;1747;48.884;9.160;2023-08-12T06:21:29;10.38;;;6.85;;
3465;SDS011;1747;48.884;9.160;2023-08-12T06:23:56;8.00;;;6.35;;
3465;SDS011;1747;48.884;9.160;2023-08-12T06:26:23;8.48;;;6.93;;
3465;SDS011;1747;48.884;9.160;2023-08-12T06:28:50;11.10;;;6.30;;
3465;SDS011;1747;48.884;9.160;2023-08-12T06:31:17;9.82;;;6.20;;
3465;SDS011;1747;48.884;9.160;2023-08-12T06:33:46;9.82;;;6.45;;
3465;SDS011;1747;48.884;9.160;2023-08-12T06:36:13;8.73;;;5.97;;
3465;SDS011;1747;48.884;9.160;2023-08-12T06:38:40;9.15;;;6.05;;
3465;SDS011;1747;48.884;9.160;2023-08-12T06:41:07;7.43;;;5.95;;
3465;SDS011;1747;48.884;9.160;2023-08-12T06:43:34;7.35;;;6.15;;
3465;SDS011;1747;48.884;9.160;2023-08-12T06:46:01;9.55;;;5.57;;
3465;SDS011;1747;48.884;9.160;2023-08-12T06:48:29;9.30;;;5.70;;
3465;SDS011;1747;48.884;9.160;2023-08-12T06:50:57;9.05;;;6.18;;
3465;SDS011;1747;48.884;9.160;2023-08-12T06:53:25;10.75;;;5.70;;
3465;SDS011;1747;48.884;9.160;2023-08-12T06:55:52;8.95;;;5.57;;
3465;SDS011;1747;48.884;9.160;2023-08-12T06:58:19;7.07;;;5.57;;
3465;SDS011;1747;48.884;9.160;2023-08-12T07:00:47;9.00;;;6.22;;
3465;SDS011;1747;48.884;9.160;2023-08-12T07:03:14;10.00;;;6.45;;
3465;SDS011;1747;48.884;9.160;2023-08-12T07:05:41;7.07;;;6.07;;
3465;SDS011;1747;48.884;9.160;2023-08-12T07:08:09;9.18;;;5.85;;
3465;SDS011;1747;48.884;9.160;2023-08-12T07:10:37;7.28;;;5.60;;
3465;SDS011;1747;48.884;9.160;2023-08-12T07:13:04;8.52;;;5.80;;
3465;SDS011;1747;48.884;9.160;2023-08-12T07:15:31;8.07;;;5.47;;
3465;SDS011;1747;48.884;9.160;2023-08-12T07:17:58;6.47;;;5.78;;
3465;SDS011;1747;48.884;9.160;2023-08-12T07:20:25;8.20;;;6.13;;
3465;SDS011;1747;48.884;9.160;2023-08-12T07:22:52;8.60;;;5.60;;
3465;SDS011;1747;48.884;9.160;2023-08-12T07:25:20;7.22;;;5.78;;
3465;SDS011;1747;48.884;9.160;2023-08-12T07:27:47;6.57;;;5.22;;
3465;SDS011;1747;48.884;9.160;2023-08-12T07:30:14;6.43;;;5.45;;
3465;SDS011;1747;48.884;9.160;2023-08-12T07:32:41;8.27;;;5.85;;
3465;SDS011;1747;48.884;9.160;2023-08-12T07:35:08;8.63;;;5.65;;
3465;SDS011;1747;48.884;9.160;2023-08-12T07:37:36;7.10;;;5.38;;
3465;SDS011;1747;48.884;9.160;2023-08-12T07:40:03;7.38;;;5.22;;
3465;SDS011;1747;48.884;9.160;2023-08-12T07:42:31;5.65;;;4.70;;
3465;SDS011;1747;48.884;9.160;2023-08-12T07:44:58;7.32;;;4.70;;
3465;SDS011;1747;48.884;9.160;2023-08-12T07:47:25;5.97;;;4.70;;
3465;SDS011;1747;48.884;9.160;2023-08-12T07:49:51;5.85;;;4.45;;
3465;SDS011;1747;48.884;9.160;2023-08-12T07:52:18;5.50;;;4.93;;
3465;SDS011;1747;48.884;9.160;2023-08-12T07:54:45;4.70;;;4.20;;
3465;SDS011;1747;48.884;9.160;2023-08-12T07:57:12;5.35;;;4.47;;
3465;SDS011;1747;48.884;9.160;2023-08-12T07:59:40;7.82;;;4.68;;
3465;SDS011;1747;48.884;9.160;2023-08-12T08:02:07;5.57;;;4.75;;
3465;SDS011;1747;48.884;9.160;2023-08-12T08:04:33;4.82;;;4.18;;
3465;SDS011;1747;48.884;9.160;2023-08-12T08:07:00;10.23;;;5.57;;
3465;SDS011;1747;48.884;9.160;2023-08-12T08:09:28;5.53;;;4.72;;
3465;SDS011;1747;48.884;9.160;2023-08-12T08:11:55;6.63;;;5.25;;
3465;SDS011;1747;48.884;9.160;2023-08-12T08:14:22;8.07;;;5.20;;
3465;SDS011;1747;48.884;9.160;2023-08-12T08:16:50;6.20;;;5.05;;
3465;SDS011;1747;48.884;9.160;2023-08-12T08:19:17;8.90;;;4.72;;
3465;SDS011;1747;48.884;9.160;2023-08-12T08:21:44;4.40;;;4.00;;
3465;SDS011;1747;48.884;9.160;2023-08-12T08:24:11;6.50;;;4.75;;
3465;SDS011;1747;48.884;9.160;2023-08-12T08:26:37;8.10;;;4.72;;
3465;SDS011;1747;48.884;9.160;2023-08-12T08:29:05;5.65;;;4.65;;
3465;SDS011;1747;48.884;9.160;2023-08-12T08:31:32;6.18;;;4.38;;
3465;SDS011;1747;48.884;9.160;2023-08-12T08:34:00;5.15;;;4.65;;
3465;SDS011;1747;48.884;9.160;2023-08-12T08:36:27;6.80;;;4.63;;
3465;SDS011;1747;48.884;9.160;2023-08-12T08:38:54;6.15;;;4.82;;
3465;SDS011;1747;48.884;9.160;2023-08-12T08:41:22;7.25;;;5.25;;
3465;SDS011;1747;48.884;9.160;2023-08-12T08:43:52;8.10;;;4.80;;
3465;SDS011;1747;48.884;9.160;2023-08-12T08:46:21;10.50;;;5.68;;
3465;SDS011;1747;48.884;9.160;2023-08-12T08:48:49;6.20;;;5.38;;
3465;SDS011;1747;48.884;9.160;2023-08-12T08:51:20;6.63;;;5.00;;
3465;SDS011;1747;48.884;9.160;2023-08-12T08:53:47;7.30;;;5.25;;
3465;SDS011;1747;48.884;9.160;2023-08-12T08:56:15;7.47;;;5.85;;
3465;SDS011;1747;48.884;9.160;2023-08-12T08:58:42;7.00;;;5.03;;
3465;SDS011;1747;48.884;9.160;2023-08-12T09:01:09;6.13;;;5.47;;
3465;SDS011;1747;48.884;9.160;2023-08-12T09:03:37;7.20;;;5.00;;
3465;SDS011;1747;48.884;9.160;2023-08-12T09:06:04;7.00;;;4.88;;
3465;SDS011;1747;48.884;9.160;2023-08-12T09:08:33;7.63;;;5.35;;
3465;SDS011;1747;48.884;9.160;2023-08-12T09:11:00;6.07;;;5.47;;
3465;SDS011;1747;48.884;9.160;2023-08-12T09:13:28;8.40;;;5.70;;
3465;SDS011;1747;48.884;9.160;2023-08-12T09:15:55;6.45;;;5.75;;
3465;SDS011;1747;48.884;9.160;2023-08-12T09:18:22;8.43;;;5.25;;
3465;SDS011;1747;48.884;9.160;2023-08-12T09:20:49;7.65;;;5.68;;
3465;SDS011;1747;48.884;9.160;2023-08-12T09:23:16;8.52;;;5.80;;
3465;SDS011;1747;48.884;9.160;2023-08-12T09:25:45;6.85;;;5.13;;
3465;SDS011;1747;48.884;9.160;2023-08-12T09:28:12;5.85;;;5.00;;
3465;SDS011;1747;48.884;9.160;2023-08-12T09:30:39;9.15;;;5.07;;
3465;SDS011;1747;48.884;9.160;2023-08-12T09:33:07;7.65;;;5.78;;
3465;SDS011;1747;48.884;9.160;2023-08-12T09:35:36;6.15;;;5.35;;
3465;SDS011;1747;48.884;9.160;2023-08-12T09:38:04;7.28;;;5.65;;
3465;SDS011;1747;48.884;9.160;2023-08-12T09:40:33;7.72;;;5.57;;
3465;SDS011;1747;48.884;9.160;2023-08-12T09:43:03;7.70;;;4.78;;
3465;SDS011;1747;48.884;9.160;2023-08-12T09:45:30;6.53;;;5.45;;
3465;SDS011;1747;48.884;9.160;2023-08-12T09:47:58;7.10;;;5.30;;
3465;SDS011;1747;48.884;9.160;2023-08-12T09:50:24;7.80;;;5.78;;
3465;SDS011;1747;48.884;9.160;2023-08-12T09:52:52;6.93;;;5.32;;
3465;SDS011;1747;48.884;9.160;2023-08-12T09:55:21;6.00;;;5.38;;
3465;SDS011;1747;48.884;9.160;2023-08-12T09:57:49;9.35;;;5.80;;
3465;SDS011;1747;48.884;9.160;2023-08-12T10:00:19;5.90;;;5.28;;
3465;SDS011;1747;48.884;9.160;2023-08-12T10:02:48;5.82;;;5.30;;
3465;SDS011;1747;48.884;9.160;2023-08-12T10:05:18;8.50;;;5.55;;
3465;SDS011;1747;48.884;9.160;2023-08-12T10:07:47;11.88;;;6.22;;
3465;SDS011;1747;48.884;9.160;2023-08-12T10:10:14;7.30;;;6.07;;
3465;SDS011;1747;48.884;9.160;2023-08-12T10:12:41;6.25;;;5.20;;
3465;SDS011;1747;48.884;9.160;2023-08-12T10:15:09;6.28;;;5.15;;
3465;SDS011;1747;48.884;9.160;2023-08-12T10:17:38;7.88;;;5.35;;
3465;SDS011;1747;48.884;9.160;2023-08-12T10:20:06;8.18;;;4.97;;
3465;SDS011;1747;48.884;9.160;2023-08-12T10:22:35;6.45;;;5.18;;
3465;SDS011;1747;48.884;9.160;2023-08-12T10:25:02;6.10;;;5.20;;
3465;SDS011;1747;48.884;9.160;2023-08-12T10:27:30;7.47;;;4.72;;
3465;SDS011;1747;48.884;9.160;2023-08-12T10:29:57;8.52;;;5.68;;
3465;SDS011;1747;48.884;9.160;2023-08-12T10:32:24;8.18;;;6.47;;
3465;SDS011;1747;48.884;9.160;2023-08-12T10:34:55;6.10;;;5.28;;
3465;SDS011;1747;48.884;9.160;2023-08-12T10:37:23;8.20;;;5.43;;
3465;SDS011;1747;48.884;9.160;2023-08-12T10:39:51;7.57;;;5.10;;
3465;SDS011;1747;48.884;9.160;2023-08-12T10:45:07;8.93;;;5.00;;
3465;SDS011;1747;48.884;9.160;2023-08-12T10:47:37;5.75;;;5.25;;
3465;SDS011;1747;48.884;9.160;2023-08-12T10:50:20;9.45;;;5.93;;
3465;SDS011;1747;48.884;9.160;2023-08-12T10:52:50;5.80;;;4.93;;
3465;SDS011;1747;48.884;9.160;2023-08-12T10:55:19;5.75;;;3.63;;
3465;SDS011;1747;48.884;9.160;2023-08-12T10:57:47;4.65;;;3.28;;
3465;SDS011;1747;48.884;9.160;2023-08-12T11:00:15;4.53;;;3.80;;
3465;SDS011;1747;48.884;9.160;2023-08-12T11:02:47;5.13;;;4.00;;
3465;SDS011;1747;48.884;9.160;2023-08-12T11:05:15;3.90;;;3.50;;
3465;SDS011;1747;48.884;9.160;2023-08-12T11:07:46;4.20;;;3.45;;
3465;SDS011;1747;48.884;9.160;2023-08-12T11:10:14;4.60;;;3.63;;
3465;SDS011;1747;48.884;9.160;2023-08-12T11:12:46;3.90;;;3.35;;
3465;SDS011;1747;48.884;9.160;2023-08-12T11:15:19;6.15;;;3.67;;
3465;SDS011;1747;48.884;9.160;2023-08-12T11:17:56;7.30;;;3.45;;
3465;SDS011;1747;48.884;9.160;2023-08-12T11:20:23;8.60;;;3.85;;
3465;SDS011;1747;48.884;9.160;2023-08-12T11:22:52;5.47;;;3.53;;
3465;SDS011;1747;48.884;9.160;2023-08-12T11:25:19;3.25;;;2.95;;
3465;SDS011;1747;48.884;9.160;2023-08-12T11:27:47;7.32;;;3.42;;
3465;SDS011;1747;48.884;9.160;2023-08-12T11:30:15;3.83;;;3.38;;
3465;SDS011;1747;48.884;9.160;2023-08-12T11:32:43;3.58;;;3.13;;
3465;SDS011;1747;48.884;9.160;2023-08-12T11:35:11;4.15;;;3.55;;
3465;SDS011;1747;48.884;9.160;2023-08-12T11:37:40;6.43;;;3.42;;
3465;SDS011;1747;48.884;9.160;2023-08-12T11:40:09;5.50;;;3.08;;
3465;SDS011;1747;48.884;9.160;2023-08-12T11:42:41;4.85;;;2.95;;
3465;SDS011;1747;48.884;9.160;2023-08-12T11:45:09;3.97;;;3.20;;
3465;SDS011;1747;48.884;9.160;2023-08-12T11:47:38;7.00;;;3.75;;
3465;SDS011;1747;48.884;9.160;2023-08-12T11:50:06;5.30;;;3.45;;
3465;SDS011;1747;48.884;9.160;2023-08-12T11:52:34;5.57;;;3.30;;
3465;SDS011;1747;48.884;9.160;2023-08-12T11:55:03;6.47;;;2.60;;
3465;SDS011;1747;48.884;9.160;2023-08-12T11:57:32;2.63;;;1.73;;
3465;SDS011;1747;48.884;9.160;2023-08-12T12:00:00;2.40;;;1.58;;
3465;SDS011;1747;48.884;9.160;2023-08-12T12:02:30;4.78;;;2.10;;
3465;SDS011;1747;48.884;9.160;2023-08-12T12:04:57;2.72;;;1.83;;
3465;SDS011;1747;48.884;9.160;2023-08-12T12:07:25;2.95;;;1.55;;
3465;SDS011;1747;48.884;9.160;2023-08-12T12:09:52;2.15;;;1.00;;
3465;SDS011;1747;48.884;9.160;2023-08-12T12:12:21;3.13;;;1.58;;
3465;SDS011;1747;48.884;9.160;2023-08-12T12:14:51;2.28;;;1.55;;
3465;SDS011;1747;48.884;9.160;2023-08-12T12:17:20;2.22;;;1.65;;
3465;SDS011;1747;48.884;9.160;2023-08-12T12:19:51;3.50;;;1.80;;
3465;SDS011;1747;48.884;9.160;2023-08-12T12:22:19;2.03;;;1.83;;
3465;SDS011;1747;48.884;9.160;2023-08-12T12:24:46;4.47;;;2.00;;
3465;SDS011;1747;48.884;9.160;2023-08-12T12:27:13;3.47;;;2.15;;
3465;SDS011;1747;48.884;9.160;2023-08-12T12:29:40;2.80;;;1.90;;
3465;SDS011;1747;48.884;9.160;2023-08-12T12:32:09;5.88;;;2.55;;
3465;SDS011;1747;48.884;9.160;2023-08-12T12:34:38;4.50;;;2.38;;
3465;SDS011;1747;48.884;9.160;2023-08-12T12:37:05;4.50;;;2.85;;
3465;SDS011;1747;48.884;9.160;2023-08-12T12:39:32;7.53;;;2.95;;
3465;SDS011;1747;48.884;9.160;2023-08-12T12:41:59;6.63;;;3.55;;
3465;SDS011;1747;48.884;9.160;2023-08-12T12:44:26;4.72;;;3.67;;
3465;SDS011;1747;48.884;9.160;2023-08-12T12:46:53;4.45;;;3.65;;
3465;SDS011;1747;48.884;9.160;2023-08-12T12:49:21;4.85;;;3.83;;
3465;SDS011;1747;48.884;9.160;2023-08-12T12:51:48;5.43;;;3.70;;
3465;SDS011;1747;48.884;9.160;2023-08-12T12:54:15;5.93;;;4.13;;
3465;SDS011;1747;48.884;9.160;2023-08-12T12:56:42;5.18;;;3.63;;
3465;SDS011;1747;48.884;9.160;2023-08-12T12:59:09;4.25;;;3.75;;
3465;SDS011;1747;48.884;9.160;2023-08-12T13:01:36;5.95;;;3.97;;
3465;SDS011;1747;48.884;9.160;2023-08-12T13:04:03;6.93;;;3.58;;
3465;SDS011;1747;48.884;9.160;2023-08-12T13:06:32;5.38;;;3.75;;
3465;SDS011;1747;48.884;9.160;2023-08-12T13:08:59;5.15;;;4.18;;
3465;SDS011;1747;48.884;9.160;2023-08-12T13:11:26;9.82;;;5.20;;
3465;SDS011;1747;48.884;9.160;2023-08-12T13:13:54;7.22;;;4.82;;
3465;SDS011;1747;48.884;9.160;2023-08-12T13:16:21;6.68;;;4.35;;
3465;SDS011;1747;48.884;9.160;2023-08-12T13:18:48;6.13;;;4.43;;
3465;SDS011;1747;48.884;9.160;2023-08-12T13:21:14;7.63;;;4.30;;
3465;SDS011;1747;48.884;9.160;2023-08-12T13:23:43;5.65;;;4.22;;
3465;SDS011;1747;48.884;9.160;2023-08-12T13:26:09;6.18;;;4.18;;
3465;SDS011;1747;48.884;9.160;2023-08-12T13:28:36;6.03;;;4.65;;
3465;SDS011;1747;48.884;9.160;2023-08-12T13:31:03;6.20;;;4.15;;
3465;SDS011;1747;48.884;9.160;2023-08-12T13:33:31;8.68;;;4.20;;
3465;SDS011;1747;48.884;9.160;2023-08-12T13:35:57;5.60;;;4.00;;
3465;SDS011;1747;48.884;9.160;2023-08-12T13:38:24;5.38;;;4.22;;
3465;SDS011;1747;48.884;9.160;2023-08-12T13:40:52;7.10;;;4.05;;
3465;SDS011;1747;48.884;9.160;2023-08-12T13:43:19;5.82;;;3.92;;
3465;SDS011;1747;48.884;9.160;2023-08-12T13:45:46;7.15;;;4.30;;
3465;SDS011;1747;48.884;9.160;2023-08-12T13:48:13;9.10;;;3.65;;
3465;SDS011;1747;48.884;9.160;2023-08-12T13:50:40;5.47;;;3.17;;
3465;SDS011;1747;48.884;9.160;2023-08-12T13:53:07;5.78;;;2.97;;
3465;SDS011;1747;48.884;9.160;2023-08-12T13:55:33;3.65;;;3.10;;
3465;SDS011;1747;48.884;9.160;2023-08-12T13:58:02;4.18;;;3.05;;
3465;SDS011;1747;48.884;9.160;2023-08-12T14:00:28;3.92;;;3.22;;
3465;SDS011;1747;48.884;9.160;2023-08-12T14:02:55;5.05;;;2.85;;
3465;SDS011;1747;48.884;9.160;2023-08-12T14:05:22;3.35;;;3.00;;
3465;SDS011;1747;48.884;9.160;2023-08-12T14:07:49;7.35;;;2.95;;
3465;SDS011;1747;48.884;9.160;2023-08-12T14:10:16;3.70;;;3.00;;
3465;SDS011;1747;48.884;9.160;2023-08-12T14:12:43;9.05;;;3.50;;
3465;SDS011;1747;48.884;9.160;2023-08-12T14:15:11;4.90;;;3.30;;
3465;SDS011;1747;48.884;9.160;2023-08-12T14:17:38;5.28;;;3.45;;
3465;SDS011;1747;48.884;9.160;2023-08-12T14:20:05;3.50;;;3.20;;
3465;SDS011;1747;48.884;9.160;2023-08-12T14:22:33;5.50;;;3.33;;
3465;SDS011;1747;48.884;9.160;2023-08-12T14:25:01;4.63;;;3.47;;
3465;SDS011;1747;48.884;9.160;2023-08-12T14:27:29;3.90;;;3.60;;
3465;SDS011;1747;48.884;9.160;2023-08-12T14:29:56;5.70;;;3.90;;
3465;SDS011;1747;48.884;9.160;2023-08-12T14:32:24;3.42;;;3.13;;
3465;SDS011;1747;48.884;9.160;2023-08-12T14:34:51;3.92;;;3.53;;
3465;SDS011;1747;48.884;9.160;2023-08-12T14:37:17;4.72;;;3.42;;
3465;SDS011;1747;48.884;9.160;2023-08-12T14:39:44;4.80;;;3.17;;
3465;SDS011;1747;48.884;9.160;2023-08-12T14:42:11;4.75;;;3.40;;
3465;SDS011;1747;48.884;9.160;2023-08-12T14:44:38;3.67;;;3.10;;
3465;SDS011;1747;48.884;9.160;2023-08-12T14:47:05;4.90;;;3.35;;
3465;SDS011;1747;48.884;9.160;2023-08-12T14:49:34;4.10;;;3.42;;
3465;SDS011;1747;48.884;9.160;2023-08-12T14:52:00;4.50;;;3.50;;
3465;SDS011;1747;48.884;9.160;2023-08-12T14:54:28;4.82;;;3.60;;
3465;SDS011;1747;48.884;9.160;2023-08-12T14:56:54;4.30;;;3.88;;
3465;SDS011;1747;48.884;9.160;2023-08-12T14:59:21;3.95;;;3.63;;
3465;SDS011;1747;48.884;9.160;2023-08-12T15:01:48;5.97;;;3.95;;
3465;SDS011;1747;48.884;9.160;2023-08-12T15:04:15;5.32;;;4.72;;
3465;SDS011;1747;48.884;9.160;2023-08-12T15:06:44;6.93;;;4.03;;
3465;SDS011;1747;48.884;9.160;2023-08-12T15:09:10;4.50;;;4.10;;
3465;SDS011;1747;48.884;9.160;2023-08-12T15:11:38;4.20;;;3.80;;
3465;SDS011;1747;48.884;9.160;2023-08-12T15:14:04;5.10;;;4.30;;
3465;SDS011;1747;48.884;9.160;2023-08-12T15:16:31;4.97;;;4.30;;
3465;SDS011;1747;48.884;9.160;2023-08-12T15:18:58;5.40;;;3.88;;
3465;SDS011;1747;48.884;9.160;2023-08-12T15:21:25;4.32;;;3.92;;
3465;SDS011;1747;48.884;9.160;2023-08-12T15:23:53;4.60;;;4.18;;